Time;durP1;ratioP1;P1;durP2;ratioP2;P2;SDS_P1;SDS_P2;PMS_P1;PMS_P2;Temp;Humidity;BMP_temperature;BMP_pressure;BME280_temperature;BME280_humidity;BME280_pressure;Samples;Min_cycle;Max_cycle;Signal;HPM_P1;HPM_P2
2023/10/14 00:00:26;;;;;;;23.27;21.07;;;;;13.70;96544.00;;;;5007321;28;20687;-65
2023/10/14 00:03:26;;;;;;;20.77;18.77;;;;;13.30;96549.00;;;;5008660;28;20225;-65
2023/10/14 00:06:17;;;;;;;16.47;14.17;;;;;13.30;96534.00;;;;5010434;28;20255;-64
2023/10/14 00:09:11;;;;;;;14.43;11.43;;;;;13.60;96532.00;;;;5007701;28;20233;-65
2023/10/14 00:12:09;;;;;;;10.57;9.63;;;;;13.50;96538.00;;;;5008131;28;20857;-64
2023/10/14 00:15:03;;;;;;;9.10;8.30;;;;;13.60;96533.00;;;;5002795;28;20217;-65
2023/10/14 00:17:57;;;;;;;11.17;8.30;;;;;13.80;96520.00;;;;5005173;28;20252;-65
2023/10/14 00:20:46;;;;;;;8.00;6.07;;;;;14.00;96520.00;;;;5004729;28;20210;-65
2023/10/14 00:23:35;;;;;;;9.10;5.43;;;;;14.10;96517.00;;;;5008073;28;20233;-64
2023/10/14 00:26:25;;;;;;;8.93;5.33;;;;;14.20;96501.00;;;;5006614;28;20674;-64
2023/10/14 00:29:19;;;;;;;12.83;7.27;;;;;13.90;96493.00;;;;5007555;28;20703;-64
2023/10/14 00:32:08;;;;;;;11.03;5.83;;;;;13.70;96507.00;;;;5006546;28;20659;-64
2023/10/14 00:34:59;;;;;;;6.50;3.07;;;;;13.60;96504.00;;;;5005832;28;20205;-65
2023/10/14 00:37:48;;;;;;;8.30;3.77;;;;;13.90;96496.00;;;;5003946;28;20206;-64
2023/10/14 00:40:38;;;;;;;6.20;3.07;;;;;14.10;96494.00;;;;5008738;28;20206;-64
2023/10/14 00:43:27;;;;;;;6.80;3.93;;;;;13.70;96501.00;;;;5009321;28;20602;-65
2023/10/14 00:46:22;;;;;;;10.83;5.67;;;;;13.80;96496.00;;;;5010091;28;20705;-65
2023/10/14 00:49:12;;;;;;;11.43;5.97;;;;;13.90;96494.00;;;;5007375;28;20287;-65
2023/10/14 00:52:06;;;;;;;7.60;4.43;;;;;13.90;96479.00;;;;5007745;28;20365;-64
2023/10/14 00:55:12;;;;;;;7.87;4.60;;;;;13.40;96478.00;;;;5006839;28;20210;-65
2023/10/14 00:58:01;;;;;;;5.67;3.60;;;;;13.50;96476.00;;;;5006294;28;20271;-64
2023/10/14 01:01:00;;;;;;;4.63;2.33;;;;;13.70;96471.00;;;;5004961;28;20202;-64
2023/10/14 01:03:54;;;;;;;6.63;3.33;;;;;13.30;96451.00;;;;5005276;28;20300;-64
2023/10/14 01:06:59;;;;;;;6.43;4.07;;;;;13.20;96456.00;;;;5008687;28;20691;-64
2023/10/14 01:09:52;;;;;;;5.70;3.17;;;;;13.40;96454.00;;;;5003213;28;20717;-65
2023/10/14 01:12:45;;;;;;;6.03;4.30;;;;;13.50;96450.00;;;;5006189;28;20210;-64
2023/10/14 01:15:42;;;;;;;8.07;4.50;;;;;13.20;96437.00;;;;5008963;28;20201;-64
2023/10/14 01:18:34;;;;;;;6.77;4.20;;;;;13.20;96438.00;;;;5007834;28;20233;-65
2023/10/14 01:21:28;;;;;;;5.17;2.90;;;;;13.20;96434.00;;;;5009529;28;20194;-64
2023/10/14 01:24:19;;;;;;;7.77;3.83;;;;;13.20;96443.00;;;;5007774;28;20236;-65
2023/10/14 01:27:09;;;;;;;12.07;9.00;;;;;13.50;96439.00;;;;5008789;28;20710;-64
2023/10/14 01:29:58;;;;;;;8.47;5.93;;;;;13.30;96424.00;;;;5006569;28;20232;-64
2023/10/14 01:32:49;;;;;;;6.67;5.37;;;;;12.90;96428.00;;;;5002486;28;20194;-65
2023/10/14 01:35:42;;;;;;;8.20;5.80;;;;;12.90;96426.00;;;;5007591;28;20263;-64
2023/10/14 01:38:31;;;;;;;7.20;4.80;;;;;13.30;96423.00;;;;5007341;28;20725;-65
2023/10/14 01:41:22;;;;;;;13.57;9.27;;;;;13.00;96426.00;;;;5007906;28;20210;-64
2023/10/14 01:44:13;;;;;;;14.43;12.23;;;;;12.90;96422.00;;;;5007495;28;20258;-64
2023/10/14 01:47:03;;;;;;;9.43;8.53;;;;;12.90;96419.00;;;;5005682;28;20212;-64
2023/10/14 01:49:53;;;;;;;11.50;10.57;;;;;13.10;96411.00;;;;5005173;28;20225;-64
2023/10/14 01:52:42;;;;;;;17.80;16.57;;;;;13.10;96410.00;;;;5008529;28;20753;-65
2023/10/14 01:55:32;;;;;;;28.43;26.63;;;;;13.10;96408.00;;;;5007309;28;20229;-64
2023/10/14 01:58:29;;;;;;;91.73;82.93;;;;;13.00;96399.00;;;;5009449;28;20714;-64
2023/10/14 02:01:18;;;;;;;55.43;51.43;;;;;12.80;96403.00;;;;5008957;28;20563;-64
2023/10/14 02:04:08;;;;;;;105.77;92.30;;;;;13.10;96389.00;;;;5006626;28;20217;-65
2023/10/14 02:07:17;;;;;;;6.53;5.07;;;;;13.10;96393.00;;;;5005635;28;20229;-64
2023/10/14 02:10:12;;;;;;;9.93;4.53;;;;;12.70;96397.00;;;;5005591;28;20224;-65
2023/10/14 02:13:01;;;;;;;4.13;2.60;;;;;12.50;96401.00;;;;5005199;28;20201;-64
2023/10/14 02:15:52;;;;;;;4.37;2.37;;;;;12.80;96407.00;;;;5003401;28;20217;-64
2023/10/14 02:18:42;;;;;;;3.77;2.20;;;;;13.00;96400.00;;;;5003157;28;20230;-65
2023/10/14 02:21:34;;;;;;;2.57;1.57;;;;;12.90;96405.00;;;;5007904;28;20209;-65
2023/10/14 02:24:23;;;;;;;3.77;2.23;;;;;12.50;96396.00;;;;5076009;23;20239;-68
2023/10/14 02:27:12;;;;;;;5.07;3.03;;;;;12.80;96395.00;;;;5063342;28;20204;-68
2023/10/14 02:30:01;;;;;;;2.60;1.53;;;;;12.90;96398.00;;;;5063535;28;20219;-68
2023/10/14 02:32:52;;;;;;;2.43;1.60;;;;;12.70;96390.00;;;;5063173;28;20246;-68
2023/10/14 02:35:41;;;;;;;4.23;2.40;;;;;12.90;96396.00;;;;5066919;28;20200;-68
2023/10/14 02:38:30;;;;;;;2.53;1.70;;;;;12.50;96380.00;;;;5070629;28;20207;-68
2023/10/14 02:41:19;;;;;;;3.57;2.57;;;;;12.20;96387.00;;;;5064125;28;20204;-68
2023/10/14 02:44:25;;;;;;;4.17;2.50;;;;;12.80;96386.00;;;;5062198;28;20227;-68
2023/10/14 02:47:17;;;;;;;3.43;2.13;;;;;12.70;96374.00;;;;5066748;28;20203;-68
2023/10/14 02:50:11;;;;;;;5.17;3.10;;;;;12.40;96371.00;;;;5064859;28;20200;-68
2023/10/14 02:53:06;;;;;;;1.97;1.27;;;;;12.60;96368.00;;;;5067349;28;21038;-68
2023/10/14 02:56:04;;;;;;;2.43;1.60;;;;;12.20;96355.00;;;;5060733;28;20579;-68
2023/10/14 02:58:54;;;;;;;2.70;1.67;;;;;11.90;96364.00;;;;5066871;28;20202;-67
2023/10/14 03:01:50;;;;;;;3.33;1.90;;;;;11.80;96374.00;;;;5067329;28;20200;-67
2023/10/14 03:04:44;;;;;;;3.20;2.00;;;;;11.90;96371.00;;;;5062292;28;20747;-69
2023/10/14 03:07:44;;;;;;;5.43;3.07;;;;;12.30;96373.00;;;;5068855;28;20207;-68
2023/10/14 03:10:35;;;;;;;3.03;1.90;;;;;12.00;96381.00;;;;5068765;28;20204;-68
2023/10/14 03:13:24;;;;;;;2.43;1.60;;;;;12.10;96365.00;;;;5069717;28;20227;-67
2023/10/14 03:16:18;;;;;;;2.60;1.47;;;;;12.60;96372.00;;;;5068573;28;20196;-68
2023/10/14 03:19:07;;;;;;;4.47;2.70;;;;;12.80;96378.00;;;;5064869;28;20241;-68
2023/10/14 03:21:59;;;;;;;2.67;1.60;;;;;12.90;96370.00;;;;5066032;28;20282;-68
2023/10/14 03:24:50;;;;;;;2.97;1.77;;;;;12.70;96376.00;;;;5070534;28;20696;-68
2023/10/14 03:27:39;;;;;;;5.00;2.80;;;;;12.50;96377.00;;;;5070445;28;20579;-68
2023/10/14 03:30:31;;;;;;;2.30;1.57;;;;;12.20;96366.00;;;;5065283;28;20227;-68
2023/10/14 03:33:20;;;;;;;4.40;2.70;;;;;12.40;96366.00;;;;5068030;28;20250;-68
2023/10/14 03:36:15;;;;;;;4.67;2.67;;;;;12.80;96374.00;;;;5063642;28;20207;-68
2023/10/14 03:39:21;;;;;;;3.30;1.87;;;;;12.90;96375.00;;;;5069211;28;20195;-68
2023/10/14 03:42:13;;;;;;;5.40;2.93;;;;;12.90;96368.00;;;;5066936;28;20245;-68
2023/10/14 03:45:06;;;;;;;3.60;1.87;;;;;13.00;96367.00;;;;5067196;28;20223;-68
2023/10/14 03:48:00;;;;;;;3.83;2.00;;;;;12.20;96359.00;;;;5063119;28;20222;-68
2023/10/14 03:50:49;;;;;;;2.20;1.30;;;;;12.20;96357.00;;;;5060005;28;20192;-68
2023/10/14 03:53:38;;;;;;;3.60;2.00;;;;;11.30;96356.00;;;;5067897;28;20227;-68
2023/10/14 03:56:29;;;;;;;2.83;1.63;;;;;11.40;96365.00;;;;5068139;28;20196;-68
2023/10/14 03:59:22;;;;;;;4.97;2.73;;;;;12.10;96369.00;;;;5066976;28;20708;-67
2023/10/14 04:02:15;;;;;;;6.00;3.07;;;;;12.30;96368.00;;;;5063860;28;20588;-67
2023/10/14 04:05:10;;;;;;;4.77;2.53;;;;;11.80;96361.00;;;;5063904;28;20715;-68
2023/10/14 04:08:00;;;;;;;4.27;2.10;;;;;12.10;96356.00;;;;5064841;28;20195;-68
2023/10/14 04:10:54;;;;;;;3.80;2.00;;;;;12.00;96356.00;;;;5064245;28;20196;-68
2023/10/14 04:13:51;;;;;;;4.80;2.50;;;;;12.30;96362.00;;;;5067182;28;20593;-68
2023/10/14 04:17:00;;;;;;;3.07;1.53;;;;;12.40;96365.00;;;;5067468;28;20200;-68
2023/10/14 04:19:53;;;;;;;4.23;2.10;;;;;12.10;96361.00;;;;5060829;28;20200;-68
2023/10/14 04:22:43;;;;;;;4.83;2.23;;;;;11.80;96359.00;;;;5067617;28;20224;-68
2023/10/14 04:25:39;;;;;;;7.83;4.63;;;;;11.70;96355.00;;;;5069272;28;20223;-69
2023/10/14 04:28:31;;;;;;;5.90;2.77;;;;;11.40;96369.00;;;;5067784;28;20204;-70
2023/10/14 04:31:26;;;;;;;9.00;4.17;;;;;11.80;96369.00;;;;5066005;28;20208;-69
2023/10/14 04:34:22;;;;;;;13.37;8.63;;;;;11.90;96370.00;;;;5064253;28;20220;-68
2023/10/14 04:37:16;;;;;;;14.03;8.80;;;;;12.20;96366.00;;;;5064590;28;20196;-68
2023/10/14 04:40:15;;;;;;;12.63;9.97;;;;;12.50;96363.00;;;;5063660;28;20780;-68
2023/10/14 04:43:11;;;;;;;44.93;40.47;;;;;12.00;96366.00;;;;5064076;28;20220;-69
2023/10/14 04:46:13;;;;;;;0.50;0.50;;;;;11.10;96351.00;;;;5063274;28;20224;-67
2023/10/14 04:49:07;;;;;;;0.60;0.60;;;;;11.20;96365.00;;;;5064910;28;20200;-68
2023/10/14 04:51:58;;;;;;;0.70;0.70;;;;;11.90;96355.00;;;;5069272;28;20211;-68
2023/10/14 04:54:54;;;;;;;0.60;0.60;;;;;12.10;96358.00;;;;5065284;28;20192;-67
2023/10/14 04:57:43;;;;;;;4.87;2.80;;;;;11.60;96355.00;;;;5060742;28;20210;-67
2023/10/14 05:00:38;;;;;;;0.70;0.70;;;;;11.20;96355.00;;;;5062596;28;20208;-67
2023/10/14 05:03:29;;;;;;;5.30;2.50;;;;;11.80;96361.00;;;;5064834;28;20232;-68
2023/10/14 05:06:18;;;;;;;4.00;2.53;;;;;11.80;96342.00;;;;5065650;28;20741;-68
2023/10/14 05:09:22;;;;;;;3.17;1.60;;;;;11.60;96351.00;;;;5065888;28;20223;-68
2023/10/14 05:12:18;;;;;;;5.27;2.77;;;;;11.10;96350.00;;;;5066272;28;20200;-68
2023/10/14 05:15:19;;;;;;;6.27;3.00;;;;;11.30;96361.00;;;;5062276;28;20196;-68
2023/10/14 05:18:14;;;;;;;3.97;2.10;;;;;11.10;96357.00;;;;5062687;28;20275;-67
2023/10/14 05:21:12;;;;;;;2.43;1.43;;;;;11.00;96366.00;;;;5059855;28;20207;-67
2023/10/14 05:24:02;;;;;;;1.50;1.23;;;;;11.00;96368.00;;;;5059828;28;20231;-68
2023/10/14 05:26:58;;;;;;;1.50;1.30;;;;;11.00;96379.00;;;;5067167;28;20238;-67
2023/10/14 05:29:50;;;;;;;1.77;1.40;;;;;11.40;96393.00;;;;5062898;28;20631;-68
2023/10/14 05:32:39;;;;;;;1.67;1.37;;;;;11.90;96394.00;;;;5066167;28;20208;-68
2023/10/14 05:35:28;;;;;;;1.40;1.20;;;;;11.80;96390.00;;;;5062315;28;20211;-67
2023/10/14 05:38:19;;;;;;;2.07;1.77;;;;;12.20;96395.00;;;;5071854;28;20199;-68
2023/10/14 05:41:11;;;;;;;2.87;2.03;;;;;12.60;96399.00;;;;5063929;28;20203;-68
2023/10/14 05:44:04;;;;;;;1.80;1.40;;;;;12.50;96389.00;;;;5061800;28;20235;-68
2023/10/14 05:46:52;;;;;;;1.67;1.37;;;;;11.60;96394.00;;;;5061812;28;20219;-68
2023/10/14 05:49:43;;;;;;;4.30;2.77;;;;;11.20;96400.00;;;;5063130;28;20227;-68
2023/10/14 05:52:32;;;;;;;1.73;1.23;;;;;11.40;96409.00;;;;5064905;28;20292;-68
2023/10/14 05:55:21;;;;;;;2.77;2.20;;;;;11.90;96405.00;;;;5066899;28;20207;-68
2023/10/14 05:58:10;;;;;;;3.17;2.17;;;;;11.60;96401.00;;;;5065984;28;20206;-70
2023/10/14 06:01:01;;;;;;;1.87;1.43;;;;;11.50;96406.00;;;;5059139;28;20851;-71
2023/10/14 06:03:50;;;;;;;0.70;0.70;;;;;11.30;96416.00;;;;5063279;28;20224;-69
2023/10/14 06:06:40;;;;;;;0.80;0.80;;;;;11.70;96407.00;;;;5064877;28;20235;-69
2023/10/14 06:09:31;;;;;;;0.40;0.40;;;;;11.90;96419.00;;;;5066529;28;20215;-68
2023/10/14 06:12:20;;;;;;;0.60;0.60;;;;;12.40;96420.00;;;;5065094;28;20207;-68
2023/10/14 06:15:09;;;;;;;1.00;1.00;;;;;12.40;96426.00;;;;5061845;28;20199;-70
2023/10/14 06:18:00;;;;;;;0.43;0.43;;;;;12.50;96421.00;;;;5062390;28;20578;-68
2023/10/14 06:20:49;;;;;;;0.50;0.50;;;;;12.10;96421.00;;;;5062661;28;20700;-72
2023/10/14 06:23:39;;;;;;;0.70;0.70;;;;;12.60;96424.00;;;;5066309;28;20309;-69
2023/10/14 06:26:29;;;;;;;0.50;0.50;;;;;13.00;96417.00;;;;5061386;28;20304;-69
2023/10/14 06:29:18;;;;;;;0.80;0.80;;;;;13.10;96423.00;;;;5064916;28;20196;-70
2023/10/14 06:32:07;;;;;;;0.60;0.60;;;;;13.00;96429.00;;;;5064425;28;20282;-69
2023/10/14 06:35:08;;;;;;;0.90;0.90;;;;;12.90;96426.00;;;;5064480;28;20200;-69
2023/10/14 06:37:59;;;;;;;0.57;0.57;;;;;13.00;96427.00;;;;5062719;28;20192;-69
2023/10/14 06:40:52;;;;;;;0.50;0.50;;;;;12.90;96424.00;;;;5066026;28;20204;-70
2023/10/14 06:43:43;;;;;;;0.40;0.40;;;;;12.50;96412.00;;;;5063701;28;20634;-71
2023/10/14 06:46:33;;;;;;;0.50;0.50;;;;;12.80;96425.00;;;;5059813;28;20224;-69
2023/10/14 06:49:22;;;;;;;0.73;0.73;;;;;13.10;96432.00;;;;5067155;28;20692;-69
2023/10/14 06:52:14;;;;;;;0.90;0.90;;;;;13.10;96431.00;;;;5061487;28;20203;-70
2023/10/14 06:55:07;;;;;;;0.53;0.53;;;;;13.50;96432.00;;;;5064973;28;20206;-68
2023/10/14 06:57:56;;;;;;;0.50;0.50;;;;;13.60;96432.00;;;;5057652;28;20206;-70
2023/10/14 07:00:45;;;;;;;0.57;0.57;;;;;13.40;96439.00;;;;5060122;28;20214;-69
2023/10/14 07:03:35;;;;;;;0.50;0.50;;;;;13.00;96438.00;;;;5065155;28;20220;-68
2023/10/14 07:06:25;;;;;;;0.83;0.83;;;;;13.10;96443.00;;;;5066051;28;20602;-68
2023/10/14 07:09:18;;;;;;;0.60;0.60;;;;;13.10;96438.00;;;;5063906;28;20204;-68
2023/10/14 07:12:13;;;;;;;0.60;0.60;;;;;13.60;96444.00;;;;5063464;28;20204;-69
2023/10/14 07:15:05;;;;;;;0.60;0.60;;;;;13.80;96440.00;;;;5064668;28;20207;-69
2023/10/14 07:17:56;;;;;;;0.80;0.80;;;;;14.10;96439.00;;;;5061465;28;20193;-70
2023/10/14 07:20:45;;;;;;;1.43;1.33;;;;;14.00;96441.00;;;;5063215;28;20212;-68
2023/10/14 07:23:36;;;;;;;0.70;0.70;;;;;14.60;96439.00;;;;5059977;28;20247;-69
2023/10/14 07:26:29;;;;;;;1.33;1.23;;;;;14.60;96429.00;;;;5063038;28;20604;-68
2023/10/14 07:29:20;;;;;;;1.37;1.27;;;;;14.40;96434.00;;;;5061499;28;20200;-68
2023/10/14 07:32:09;;;;;;;0.97;0.93;;;;;14.90;96439.00;;;;5061710;28;20208;-69
2023/10/14 07:35:02;;;;;;;0.73;0.73;;;;;14.80;96440.00;;;;5061291;28;20204;-69
2023/10/14 07:37:52;;;;;;;0.53;0.53;;;;;14.90;96433.00;;;;5060982;28;20203;-68
2023/10/14 07:40:41;;;;;;;1.03;1.00;;;;;15.00;96436.00;;;;5067264;28;20212;-69
2023/10/14 07:43:33;;;;;;;1.13;1.07;;;;;14.60;96433.00;;;;5065006;28;20228;-69
2023/10/14 07:46:23;;;;;;;1.07;1.07;;;;;15.10;96429.00;;;;5066009;28;20712;-68
2023/10/14 07:49:13;;;;;;;1.57;1.47;;;;;15.40;96433.00;;;;5069519;28;20215;-69
2023/10/14 07:52:06;;;;;;;0.70;0.70;;;;;15.40;96439.00;;;;5067068;28;20203;-69
2023/10/14 07:54:55;;;;;;;1.17;1.07;;;;;15.50;96447.00;;;;5064058;28;20207;-68
2023/10/14 07:57:46;;;;;;;2.50;2.17;;;;;16.20;96458.00;;;;5062276;28;20196;-69
2023/10/14 08:00:39;;;;;;;1.60;1.50;;;;;16.60;96446.00;;;;5066114;28;20693;-69
2023/10/14 08:03:29;;;;;;;1.63;1.40;;;;;16.90;96458.00;;;;5062940;28;20236;-69
2023/10/14 08:06:18;;;;;;;1.97;1.80;;;;;16.70;96445.00;;;;5066413;28;20232;-69
2023/10/14 08:09:17;;;;;;;1.90;1.57;;;;;17.00;96454.00;;;;5067091;28;20204;-69
2023/10/14 08:12:14;;;;;;;2.27;1.77;;;;;17.40;96444.00;;;;5067948;28;20214;-69
2023/10/14 08:15:05;;;;;;;24.23;21.87;;;;;17.90;96444.00;;;;5065844;28;20196;-69
2023/10/14 08:17:57;;;;;;;6.60;5.47;;;;;18.10;96448.00;;;;5064722;28;20196;-69
2023/10/14 08:20:46;;;;;;;177.50;163.43;;;;;18.30;96448.00;;;;5064408;28;20203;-69
2023/10/14 08:23:35;;;;;;;14.57;12.63;;;;;18.50;96443.00;;;;5085156;22;20248;-66
2023/10/14 08:26:26;;;;;;;19.23;8.77;;;;;18.70;96439.00;;;;5081544;28;20805;-66
2023/10/14 08:29:18;;;;;;;10.17;5.00;;;;;18.70;96440.00;;;;5083487;28;20195;-66
2023/10/14 08:32:07;;;;;;;9.20;4.60;;;;;19.20;96438.00;;;;5084367;28;20207;-66
2023/10/14 08:35:00;;;;;;;3.77;2.13;;;;;19.60;96445.00;;;;5067841;28;20227;-66
2023/10/14 08:37:53;;;;;;;4.87;2.53;;;;;19.80;96436.00;;;;5058035;28;20200;-66
2023/10/14 08:40:43;;;;;;;5.13;2.70;;;;;19.90;96449.00;;;;5056901;28;20219;-66
2023/10/14 08:43:35;;;;;;;5.70;2.97;;;;;20.00;96443.00;;;;5063128;28;20212;-66
2023/10/14 08:46:34;;;;;;;7.77;4.13;;;;;20.50;96447.00;;;;5064753;28;20231;-66
2023/10/14 08:49:27;;;;;;;5.27;2.77;;;;;20.00;96439.00;;;;5062285;28;20211;-67
2023/10/14 08:52:18;;;;;;;7.73;3.87;;;;;20.60;96444.00;;;;5058367;28;20201;-67
2023/10/14 08:55:09;;;;;;;5.50;2.87;;;;;21.10;96442.00;;;;5059168;28;20200;-66
2023/10/14 08:58:01;;;;;;;7.27;3.90;;;;;21.70;96455.00;;;;5064583;28;20204;-66
2023/10/14 09:00:53;;;;;;;6.03;2.93;;;;;21.60;96440.00;;;;5053198;28;20631;-66
2023/10/14 09:03:44;;;;;;;4.07;2.27;;;;;22.20;96446.00;;;;5057152;28;20285;-66
2023/10/14 09:06:34;;;;;;;4.20;2.20;;;;;22.50;96443.00;;;;5062415;28;20258;-66
2023/10/14 09:09:24;;;;;;;7.80;3.97;;;;;22.60;96444.00;;;;5059808;28;20208;-66
2023/10/14 09:12:14;;;;;;;9.77;4.80;;;;;23.00;96445.00;;;;5063964;28;20196;-66
2023/10/14 09:15:04;;;;;;;5.23;2.70;;;;;23.00;96439.00;;;;5053849;28;20220;-66
2023/10/14 09:17:55;;;;;;;4.20;2.07;;;;;23.30;96451.00;;;;5059300;28;20200;-66
2023/10/14 09:20:45;;;;;;;3.70;2.10;;;;;23.60;96434.00;;;;5068734;28;20286;-66
2023/10/14 09:23:33;;;;;;;6.17;3.37;;;;;23.80;96439.00;;;;5057663;28;20224;-66
2023/10/14 09:26:27;;;;;;;7.23;4.17;;;;;24.00;96440.00;;;;5053660;28;20644;-67
2023/10/14 09:29:16;;;;;;;14.00;12.63;;;;;24.10;96441.00;;;;5067001;28;20196;-67
2023/10/14 09:32:05;;;;;;;17.53;16.40;;;;;24.30;96435.00;;;;5053191;28;20219;-67
2023/10/14 09:34:55;;;;;;;22.97;21.77;;;;;24.60;96435.00;;;;5057362;28;20223;-67
2023/10/14 09:37:44;;;;;;;33.43;31.23;;;;;24.90;96434.00;;;;5055169;28;20195;-66
2023/10/14 09:40:33;;;;;;;11.73;11.03;;;;;25.00;96437.00;;;;5065022;28;20204;-66
2023/10/14 09:43:24;;;;;;;10.97;9.80;;;;;25.20;96438.00;;;;5067264;28;20243;-67
2023/10/14 09:46:17;;;;;;;12.63;9.53;;;;;25.40;96433.00;;;;5065203;28;20204;-67
2023/10/14 09:49:10;;;;;;;13.17;12.20;;;;;25.80;96432.00;;;;5058978;28;20261;-67
2023/10/14 09:52:00;;;;;;;13.83;13.00;;;;;26.00;96426.00;;;;5066520;28;20278;-67
2023/10/14 09:54:49;;;;;;;18.73;17.40;;;;;26.10;96430.00;;;;5062168;28;20225;-67
2023/10/14 09:57:40;;;;;;;19.63;18.07;;;;;26.30;96431.00;;;;5058302;28;20623;-67
2023/10/14 10:00:33;;;;;;;17.37;16.43;;;;;26.50;96423.00;;;;5067569;28;20631;-67
2023/10/14 10:03:23;;;;;;;31.70;29.30;;;;;26.60;96427.00;;;;5061056;28;20231;-67
2023/10/14 10:06:38;;;;;;;33.33;31.43;;;;;26.70;96430.00;;;;5055785;28;20201;-67
2023/10/14 10:10:12;;;;;;;29.87;27.63;;;;;26.90;96426.00;;;;5066204;28;20211;-66
2023/10/14 10:13:01;;;;;;;20.87;19.67;;;;;27.00;96422.00;;;;4983800;28;20202;-66
2023/10/14 10:15:53;;;;;;;29.13;27.57;;;;;26.90;96416.00;;;;4980844;28;20839;-66
2023/10/14 10:18:51;;;;;;;41.50;39.57;;;;;27.50;96418.00;;;;5049409;28;20222;-66
2023/10/14 10:21:43;;;;;;;66.23;63.50;;;;;28.10;96410.00;;;;5059513;28;20224;-67
2023/10/14 10:24:35;;;;;;;91.37;87.80;;;;;28.50;96408.00;;;;5059679;28;20283;-67
2023/10/14 10:27:23;;;;;;;125.57;120.33;;;;;29.00;96404.00;;;;5062004;28;20226;-67
2023/10/14 10:30:15;;;;;;;148.17;142.43;;;;;29.20;96402.00;;;;5060917;28;20203;-67
2023/10/14 10:33:13;;;;;;;178.23;171.50;;;;;29.70;96389.00;;;;5059554;28;20222;-66
2023/10/14 10:36:09;;;;;;;219.47;211.57;;;;;29.50;96384.00;;;;5077877;28;20217;-67
2023/10/14 10:39:16;;;;;;;234.63;226.13;;;;;30.00;96379.00;;;;5072298;28;20592;-67
2023/10/14 10:42:06;;;;;;;295.77;284.70;;;;;30.70;96371.00;;;;5071941;28;20196;-67
2023/10/14 10:44:56;;;;;;;363.13;349.43;;;;;31.10;96367.00;;;;5075621;28;20234;-67
2023/10/14 10:47:46;;;;;;;448.87;430.37;;;;;31.40;96367.00;;;;5065305;28;20226;-68
2023/10/14 10:50:38;;;;;;;494.45;473.30;;;;;31.50;96356.00;;;;5061437;28;20204;-67
2023/10/14 10:53:29;;;;;;;521.40;497.77;;;;;31.90;96355.00;;;;5064229;28;20221;-67
2023/10/14 10:56:19;;;;;;;564.97;538.30;;;;;31.60;96349.00;;;;5060055;28;20702;-67
2023/10/14 10:59:08;;;;;;;612.38;582.70;;;;;31.90;96350.00;;;;5063717;28;20201;-66
2023/10/14 11:01:57;;;;;;;683.13;646.65;;;;;32.40;96348.00;;;;5061595;28;20202;-67
2023/10/14 11:04:48;;;;;;;737.85;693.97;;;;;32.80;96348.00;;;;5052645;28;20642;-67
2023/10/14 11:07:38;;;;;;;770.53;717.88;;;;;32.70;96341.00;;;;5053271;28;20220;-67
2023/10/14 11:10:28;;;;;;;771.97;722.30;;;;;33.30;96342.00;;;;5063784;28;20988;-67
2023/10/14 11:13:17;;;;;;;780.03;726.25;;;;;33.60;96335.00;;;;5071381;28;20629;-67
2023/10/14 11:16:11;;;;;;;795.83;741.53;;;;;33.30;96335.00;;;;5076290;28;20212;-67
2023/10/14 11:19:00;;;;;;;;;;;;;33.90;96328.00;;;;5073186;28;20036;-67
2023/10/14 11:21:50;;;;;;;;;;;;;34.50;96328.00;;;;5072806;28;19925;-67
2023/10/14 11:24:42;;;;;;;;;;;;;34.70;96323.00;;;;5074187;28;19924;-67
2023/10/14 11:27:30;;;;;;;;;;;;;34.80;96319.00;;;;5076007;28;19929;-67
2023/10/14 11:30:20;;;;;;;;;;;;;34.40;96324.00;;;;5081121;28;19950;-67
2023/10/14 11:33:10;;;;;;;;;;;;;35.00;96331.00;;;;5079976;28;19998;-67
2023/10/14 11:35:59;;;;;;;;;;;;;35.50;96317.00;;;;5059920;28;19927;-67
2023/10/14 11:38:48;;;;;;;;;;;;;35.70;96315.00;;;;5055343;28;19925;-68
2023/10/14 11:41:38;;;;;;;1036.65;973.65;;;;;35.10;96315.00;;;;5067218;28;20380;-67
2023/10/14 11:44:27;;;;;;;804.42;761.00;;;;;35.70;96304.00;;;;5067618;28;20247;-68
2023/10/14 11:47:17;;;;;;;701.92;667.00;;;;;35.60;96301.00;;;;5054844;28;20207;-67
2023/10/14 11:50:11;;;;;;;673.63;641.22;;;;;35.80;96296.00;;;;5064838;28;20646;-67
2023/10/14 11:53:02;;;;;;;687.20;653.72;;;;;35.80;96301.00;;;;5060596;28;20218;-67
2023/10/14 11:55:52;;;;;;;695.70;661.70;;;;;36.00;96291.00;;;;5060467;28;20207;-67
2023/10/14 11:58:42;;;;;;;701.03;666.95;;;;;36.70;96288.00;;;;5061673;28;20192;-68
2023/10/14 12:01:34;;;;;;;777.75;737.03;;;;;37.20;96290.00;;;;5061487;28;20212;-67
2023/10/14 12:04:23;;;;;;;873.38;823.33;;;;;37.60;96283.00;;;;5061586;28;20235;-68
2023/10/14 12:07:12;;;;;;;865.95;817.20;;;;;35.40;96281.00;;;;5064008;28;20236;-67
2023/10/14 12:10:04;;;;;;;840.78;794.90;;;;;37.10;96278.00;;;;5066552;28;20203;-67
2023/10/14 12:12:54;;;;;;;817.95;774.13;;;;;37.20;96281.00;;;;5071490;28;20235;-67
2023/10/14 12:15:46;;;;;;;828.45;783.53;;;;;37.60;96277.00;;;;5062332;28;20207;-67
2023/10/14 12:18:36;;;;;;;817.35;773.65;;;;;38.00;96276.00;;;;5054421;28;20202;-67
2023/10/14 12:21:25;;;;;;;814.90;771.17;;;;;36.90;96267.00;;;;5055536;28;20204;-67
2023/10/14 12:24:14;;;;;;;768.10;728.65;;;;;37.20;96274.00;;;;5070363;28;20243;-67
2023/10/14 12:27:03;;;;;;;762.72;723.90;;;;;37.20;96280.00;;;;5062694;28;20192;-67
2023/10/14 12:29:52;;;;;;;588.90;562.30;;;;;36.80;96267.00;;;;5060357;28;20579;-68
2023/10/14 12:32:43;;;;;;;689.88;656.45;;;;;36.90;96267.00;;;;5061965;28;20747;-68
2023/10/14 12:35:33;;;;;;;692.45;658.85;;;;;37.30;96258.00;;;;5063847;28;20630;-66
2023/10/14 12:38:22;;;;;;;701.10;666.40;;;;;36.60;96248.00;;;;5054824;28;20208;-67
2023/10/14 12:41:13;;;;;;;679.67;647.10;;;;;36.60;96242.00;;;;5058270;28;20222;-67
2023/10/14 12:44:08;;;;;;;673.90;641.75;;;;;37.20;96253.00;;;;5060278;28;20228;-67
2023/10/14 12:46:57;;;;;;;684.38;651.42;;;;;38.10;96248.00;;;;5065461;28;20730;-66
2023/10/14 12:49:50;;;;;;;645.80;615.47;;;;;39.00;96245.00;;;;5065546;28;20224;-67
2023/10/14 12:52:39;;;;;;;714.85;679.63;;;;;39.00;96249.00;;;;5057008;28;20201;-67
2023/10/14 12:55:30;;;;;;;770.28;730.28;;;;;38.90;96242.00;;;;5060379;28;20200;-67
2023/10/14 12:58:19;;;;;;;828.55;784.05;;;35.80;44.90;39.10;96241.00;;;;5054185;28;20688;-66
2023/10/14 13:01:13;;;;;;;904.17;852.70;;;35.70;45.70;39.30;96239.00;;;;5060361;28;20672;-67
2023/10/14 13:04:12;;;;;;;911.65;859.53;;;35.90;45.10;36.90;96231.00;;;;5059653;28;20430;-67
2023/10/14 13:07:03;;;;;;;800.25;758.70;;;35.10;44.20;35.20;96219.00;;;;5050838;28;20209;-67
2023/10/14 13:09:52;;;;;;;730.57;694.17;;;;;34.20;96219.00;;;;5054922;28;20212;-67
2023/10/14 13:12:44;;;;;;;723.15;687.20;;;;;33.70;96217.00;;;;5057677;28;20193;-67
2023/10/14 13:15:35;;;;;;;657.95;626.90;;;;;33.00;96222.00;;;;5058316;28;20215;-70
2023/10/14 13:18:25;;;;;;;601.40;573.22;;;;;33.40;96228.00;;;;5068943;28;20199;-67
2023/10/14 13:21:17;;;;;;;546.00;522.40;;;;;34.00;96233.00;;;;5074943;28;20200;-67
2023/10/14 13:24:11;;;;;;;580.67;554.67;;;;;34.10;96243.00;;;;5064998;28;20238;-67
2023/10/14 13:27:00;;;;;;;616.85;588.53;;;;;35.90;96229.00;;;;5063331;28;20201;-67
2023/10/14 13:29:52;;;;;;;714.83;678.85;;;;;36.50;96230.00;;;;5070429;28;20223;-67
2023/10/14 13:32:43;;;;;;;849.80;797.65;;;;;36.70;96223.00;;;;5057229;28;20215;-67
2023/10/14 13:35:33;;;;;;;862.53;805.72;;;;;34.30;96229.00;;;;5053827;28;20204;-67
2023/10/14 13:38:22;;;;;;;868.55;810.33;;;;;33.70;96228.00;;;;5053968;28;20212;-66
2023/10/14 13:41:14;;;;;;;856.45;800.22;;;;;35.10;96258.00;;;;5055293;28;20202;-66
2023/10/14 13:44:03;;;;;;;866.78;809.78;;;;;34.60;96267.00;;;;5054186;28;20248;-66
2023/10/14 13:46:52;;;;;;;849.85;793.97;;;;;33.30;96252.00;;;;5057750;28;20200;-66
2023/10/14 13:49:42;;;;;;;840.53;784.55;;;;;34.00;96210.00;;;;5057176;28;20258;-66
2023/10/14 13:52:32;;;;;;;843.53;787.60;;;;;33.60;96205.00;;;;5049655;28;20693;-66
2023/10/14 13:55:22;;;;;;;828.45;773.60;;;;;35.30;96214.00;;;;5066415;28;20271;-66
2023/10/14 13:58:13;;;;;;;831.95;777.28;;;;;36.20;96221.00;;;;5060022;28;20196;-66
2023/10/14 14:01:04;;;;;;;844.95;789.70;;;;;36.90;96215.00;;;;5052964;28;20199;-66
2023/10/14 14:03:58;;;;;;;851.17;795.63;;;;;34.40;96221.00;;;;5059992;28;20277;-66
2023/10/14 14:06:49;;;;;;;852.65;797.42;;;;;34.70;96229.00;;;;5054055;28;20208;-66